Time;durP1;ratioP1;P1;durP2;ratioP2;P2;SDS_P1;SDS_P2;PMS_P1;PMS_P2;Temp;Humidity;BMP_temperature;BMP_pressure;BME280_temperature;BME280_humidity;BME280_pressure;Samples;Min_cycle;Max_cycle;Signal;HPM_P1;HPM_P2
2022/12/13 00:01:40;;;;;;;28.33;11.52;;;;;;;-5.17;98.75;101096.06;5039969;28;20275;-84
2022/12/13 00:04:07;;;;;;;28.58;11.23;;;;;;;-5.19;98.77;101091.84;5074077;28;20032;-85
2022/12/13 00:06:34;;;;;;;23.33;10.07;;;;;;;-5.22;98.47;101089.41;5056379;28;20044;-85
2022/12/13 00:09:00;;;;;;;25.27;11.32;;;;;;;-5.24;98.76;101092.16;5056423;28;20028;-85
2022/12/13 00:11:27;;;;;;;26.50;11.40;;;;;;;-5.28;98.57;101094.16;5074030;28;20170;-85
2022/12/13 00:13:53;;;;;;;26.08;11.13;;;;;;;-5.29;98.62;101088.97;5056044;28;20036;-85
2022/12/13 00:16:21;;;;;;;28.67;11.68;;;;;;;-5.31;99.13;101089.09;5056272;28;20029;-85
2022/12/13 00:18:52;;;;;;;27.40;11.00;;;;;;;-5.32;98.92;101086.56;5055988;28;20056;-85
2022/12/13 00:21:19;;;;;;;28.38;10.43;;;;;;;-5.36;98.45;101088.56;5055976;28;20024;-85
2022/12/13 00:23:45;;;;;;;26.33;11.35;;;;;;;-5.37;98.96;101083.41;5056179;28;20078;-86
2022/12/13 00:26:16;;;;;;;27.35;11.65;;;;;;;-5.38;99.39;101085.16;5055832;28;20119;-85
2022/12/13 00:28:42;;;;;;;30.08;11.30;;;;;;;-5.36;99.17;101088.56;5056229;28;20024;-85
2022/12/13 00:31:08;;;;;;;23.50;10.33;;;;;;;-5.40;99.20;101084.44;5055679;28;20036;-85
2022/12/13 00:33:37;;;;;;;26.23;10.25;;;;;;;-5.41;99.30;101087.19;5055478;28;20021;-84
2022/12/13 00:36:03;;;;;;;29.52;10.52;;;;;;;-5.44;99.02;101085.59;5038870;28;20037;-85
2022/12/13 00:38:29;;;;;;;24.77;10.20;;;;;;;-5.46;99.44;101083.06;5055732;28;20119;-85
2022/12/13 00:40:54;;;;;;;26.77;10.87;;;;;;;-5.48;98.95;101090.28;5023276;28;20471;-84
2022/12/13 00:43:20;;;;;;;26.57;10.60;;;;;;;-5.50;98.86;101081.56;5022905;28;20384;-85
2022/12/13 00:45:45;;;;;;;28.43;11.17;;;;;;;-5.52;99.10;101080.84;5039157;28;20025;-85
2022/12/13 00:48:10;;;;;;;25.60;10.18;;;;;;;-5.53;99.13;101078.31;5055621;28;20162;-84
2022/12/13 00:50:37;;;;;;;25.53;10.50;;;;;;;-5.53;99.44;101086.25;5030362;28;20041;-85
2022/12/13 00:53:03;;;;;;;29.83;10.77;;;;;;;-5.55;99.10;101080.19;5036413;28;20033;-85
2022/12/13 00:55:28;;;;;;;25.08;10.50;;;;;;;-5.56;99.45;101079.38;5036447;28;20299;-84
2022/12/13 00:57:53;;;;;;;23.83;10.10;;;;;;;-5.58;98.77;101067.19;5035733;28;20377;-84
2022/12/13 01:00:19;;;;;;;27.02;10.38;;;;;;;-5.59;98.44;101065.53;5036131;28;20056;-84
2022/12/13 01:02:45;;;;;;;26.43;11.23;;;;;;;-5.63;98.47;101068.34;5036184;28;20465;-85
2022/12/13 01:05:11;;;;;;;26.48;11.00;;;;;;;-5.65;98.85;101072.91;5039252;28;20368;-84
2022/12/13 01:07:38;;;;;;;24.50;10.63;;;;;;;-5.68;98.39;101065.19;5039634;28;20032;-85
2022/12/13 01:10:06;;;;;;;27.02;10.80;;;;;;;-5.69;99.04;101066.13;5039501;28;20276;-85
2022/12/13 01:12:32;;;;;;;29.02;11.02;;;;;;;-5.72;98.86;101074.25;5039815;28;20357;-84
2022/12/13 01:14:57;;;;;;;27.42;11.00;;;;;;;-5.72;99.32;101065.50;5039408;28;20043;-85
2022/12/13 01:17:22;;;;;;;24.93;11.03;;;;;;;-5.73;98.62;101067.28;5006530;28;20459;-85
2022/12/13 01:19:48;;;;;;;25.17;10.63;;;;;;;-5.73;97.90;101066.44;5039342;28;20029;-85
2022/12/13 01:22:13;;;;;;;26.00;10.43;;;;;;;-5.73;98.72;101069.09;5006489;28;20041;-85
2022/12/13 01:24:38;;;;;;;28.90;11.45;;;;;;;-5.75;98.38;101068.34;5022652;28;20491;-85
2022/12/13 01:27:04;;;;;;;29.13;11.40;;;;;;;-5.76;98.69;101061.38;5057171;28;20029;-85
2022/12/13 01:29:29;;;;;;;27.53;10.87;;;;;;;-5.77;98.84;101057.03;5056780;28;20036;-85
2022/12/13 01:31:55;;;;;;;27.43;10.77;;;;;;;-5.80;98.93;101068.69;5038819;28;20029;-85
2022/12/13 01:34:22;;;;;;;26.77;10.50;;;;;;;-5.82;98.78;101057.34;5022669;28;20036;-84
2022/12/13 01:36:48;;;;;;;25.13;11.15;;;;;;;-5.85;98.97;101074.25;5039080;28;20036;-85
2022/12/13 01:39:15;;;;;;;25.38;11.27;;;;;;;-5.91;98.86;101072.03;5056968;28;20392;-85
2022/12/13 01:41:43;;;;;;;28.60;10.77;;;;;;;-5.94;98.78;101074.03;5038609;28;20040;-85
2022/12/13 01:44:46;;;;;;;26.17;10.70;;;;;;;-5.95;98.59;101081.09;5055930;28;20029;-85
2022/12/13 01:47:14;;;;;;;23.17;9.80;;;;;;;-5.98;98.61;101077.84;5056507;28;20765;-85
2022/12/13 01:49:40;;;;;;;27.63;10.90;;;;;;;-5.98;98.92;101081.34;5039551;28;20385;-85
2022/12/13 01:52:09;;;;;;;25.98;10.82;;;;;;;-5.95;99.01;101072.34;5042165;28;20040;-84
2022/12/13 01:54:42;;;;;;;23.92;10.43;;;;;;;-5.94;98.73;101079.31;5058623;28;20034;-85
2022/12/13 01:57:11;;;;;;;27.63;10.73;;;;;;;-5.94;98.48;101087.25;5058631;28;20039;-85
2022/12/13 01:59:40;;;;;;;28.45;11.43;;;;;;;-5.96;98.81;101078.56;5059387;28;20738;-85
2022/12/13 02:02:11;;;;;;;28.58;11.25;;;;;;;-5.96;99.01;101075.91;5058874;28;20032;-85
2022/12/13 02:04:39;;;;;;;27.90;10.10;;;;;;;-5.96;99.34;101074.13;5077258;28;20036;-85
2022/12/13 02:07:05;;;;;;;26.70;11.15;;;;;;;-5.96;99.73;101068.00;5076535;28;20464;-84
2022/12/13 02:09:33;;;;;;;24.23;10.50;;;;;;;-5.95;99.84;101065.25;5042105;28;20039;-85
2022/12/13 02:11:59;;;;;;;26.58;10.48;;;;;;;-5.97;99.28;101072.47;5041622;28;20286;-85
2022/12/13 02:14:24;;;;;;;33.25;10.93;;;;;;;-6.00;99.30;101070.88;5042056;28;20029;-85
2022/12/13 02:17:06;;;;;;;28.17;10.53;;;;;;;-5.97;99.46;101071.63;5040740;28;20499;-85
2022/12/13 02:19:50;;;;;;;25.80;10.63;;;;;;;-5.98;99.58;101068.13;5057987;28;20032;-84
2022/12/13 02:22:41;;;;;;;27.58;10.73;;;;;;;-6.00;99.60;101067.41;5076138;28;20033;-84
2022/12/13 02:25:10;;;;;;;27.00;10.38;;;;;;;-6.00;99.85;101064.75;5057332;28;20032;-84
2022/12/13 02:28:13;;;;;;;27.83;10.70;;;;;;;-6.00;100.00;101072.69;5058521;28;20082;-84
2022/12/13 02:30:45;;;;;;;25.27;10.65;;;;;;;-6.00;100.00;101070.88;5075956;28;20016;-83
2022/12/13 02:33:17;;;;;;;24.98;10.27;;;;;;;-6.01;99.95;101063.91;5058127;28;20472;-84
2022/12/13 02:36:17;;;;;;;24.90;9.82;;;;;;;-6.02;100.00;101067.50;5058466;28;20048;-84
2022/12/13 02:39:06;;;;;;;29.42;10.60;;;;;;;-6.00;100.00;101064.75;5058019;28;20127;-84
2022/12/13 02:41:40;;;;;;;29.20;11.23;;;;;;;-6.01;99.54;101066.56;5057753;28;20082;-84
2022/12/13 02:44:26;;;;;;;26.80;10.63;;;;;;;-6.03;100.00;101067.59;5076269;28;20095;-83
2022/12/13 02:47:01;;;;;;;29.08;12.00;;;;;;;-6.03;100.00;101054.38;5057935;28;20528;-84
2022/12/13 02:49:31;;;;;;;29.38;11.02;;;;;;;-6.04;100.00;101052.69;5057819;28;20051;-83
2022/12/13 02:51:58;;;;;;;29.58;10.57;;;;;;;-6.08;100.00;101051.19;5057647;28;20069;-84
2022/12/13 02:54:23;;;;;;;30.40;10.70;;;;;;;-6.07;100.00;101051.09;5058298;28;20040;-85
2022/12/13 02:56:57;;;;;;;26.80;11.40;;;;;;;-6.01;100.00;101052.47;5057379;28;20476;-84
2022/12/13 02:59:35;;;;;;;30.63;11.02;;;;;;;-6.02;100.00;101042.88;5057466;28;20055;-84
2022/12/13 03:02:27;;;;;;;31.27;11.97;;;;;;;-6.00;100.00;101044.44;5057510;28;20063;-85
2022/12/13 03:08:08;;;;;;;33.17;12.65;;;;;;;-5.91;100.00;101035.03;5075623;28;20089;-84
2022/12/13 03:11:02;;;;;;;28.25;11.18;;;;;;;-5.86;100.00;101035.56;5074940;28;20428;-85
2022/12/13 03:13:35;;;;;;;32.65;11.52;;;;;;;-5.83;100.00;101031.84;5057562;28;20028;-84
2022/12/13 03:16:33;;;;;;;29.47;11.73;;;;;;;-5.76;100.00;101034.94;5057209;28;20081;-84
2022/12/13 03:19:01;;;;;;;32.85;11.95;;;;;;;-5.75;100.00;101036.63;5075126;28;20028;-85
2022/12/13 03:21:27;;;;;;;30.73;11.63;;;;;;;-5.72;100.00;101039.06;5057006;28;20048;-84
2022/12/13 03:23:52;;;;;;;31.55;12.43;;;;;;;-5.70;100.00;101037.16;5040626;28;20033;-84
2022/12/13 03:26:22;;;;;;;33.67;11.97;;;;;;;-5.69;100.00;101038.84;5040208;28;20158;-85
2022/12/13 03:28:51;;;;;;;32.50;12.07;;;;;;;-5.66;100.00;101036.00;5057192;28;20070;-84
2022/12/13 03:31:16;;;;;;;35.83;12.85;;;;;;;-5.62;100.00;101045.41;5056659;28;20024;-84
2022/12/13 03:33:42;;;;;;;32.13;12.90;;;;;;;-5.62;100.00;101037.50;5040998;28;20037;-84
2022/12/13 03:36:08;;;;;;;27.67;11.47;;;;;;;-5.61;100.00;101041.81;5056608;28;20047;-85
2022/12/13 03:38:35;;;;;;;30.95;12.13;;;;;;;-5.60;100.00;101030.28;5056724;28;20028;-83
2022/12/13 03:41:05;;;;;;;29.08;11.82;;;;;;;-5.60;100.00;101037.38;5056842;28;20571;-84
2022/12/13 03:43:31;;;;;;;28.92;12.15;;;;;;;-5.59;100.00;101037.28;5056886;28;20039;-84
2022/12/13 03:45:56;;;;;;;31.10;11.90;;;;;;;-5.59;100.00;101034.63;5040673;28;20036;-84
2022/12/13 03:48:22;;;;;;;33.93;11.97;;;;;;;-5.56;100.00;101030.94;5023500;28;20063;-84
2022/12/13 03:50:49;;;;;;;31.17;11.77;;;;;;;-5.58;100.00;101028.41;5056032;28;20095;-84
2022/12/13 03:53:14;;;;;;;28.95;11.73;;;;;;;-5.57;100.00;101027.41;5056733;28;20029;-84
2022/12/13 03:55:40;;;;;;;33.33;13.17;;;;;;;-5.58;100.00;101031.03;5056979;28;20039;-84
2022/12/13 03:58:05;;;;;;;33.23;12.53;;;;;;;-5.56;100.00;101030.94;5023294;28;20040;-84
2022/12/13 04:00:31;;;;;;;26.50;11.70;;;;;;;-5.56;100.00;101023.00;5023222;28;20189;-83
2022/12/13 04:02:56;;;;;;;32.90;12.27;;;;;;;-5.54;100.00;101023.72;5074505;28;20077;-84
2022/12/13 04:05:22;;;;;;;32.57;12.43;;;;;;;-5.53;100.00;101028.91;5055818;28;20082;-84
2022/12/13 04:07:47;;;;;;;29.83;11.43;;;;;;;-5.52;100.00;101027.09;5056103;28;20117;-84
2022/12/13 04:10:13;;;;;;;34.97;12.43;;;;;;;-5.54;100.00;101018.44;5056117;28;20028;-84
2022/12/13 04:15:22;;;;;;;30.90;12.07;;;;;;;-5.53;100.00;101020.97;5074618;28;20042;-84
2022/12/13 04:17:48;;;;;;;28.13;11.43;;;;;;;-5.52;100.00;101021.81;5056592;28;20029;-84
2022/12/13 04:20:13;;;;;;;40.17;13.07;;;;;;;-5.52;100.00;101016.53;5055479;28;20080;-84
2022/12/13 04:22:39;;;;;;;31.48;12.00;;;;;;;-5.53;100.00;101009.56;5039640;28;20032;-84
2022/12/13 04:25:04;;;;;;;28.63;11.60;;;;;;;-5.53;100.00;101014.84;5056010;28;20079;-84
2022/12/13 04:27:30;;;;;;;28.50;11.23;;;;;;;-5.54;100.00;101014.00;5038934;28;20033;-84
2022/12/13 04:29:56;;;;;;;26.27;11.27;;;;;;;-5.54;100.00;101008.69;5039283;28;20038;-84
2022/12/13 04:32:21;;;;;;;27.42;11.20;;;;;;;-5.53;100.00;101010.41;5055624;28;20219;-84
2022/12/13 04:34:46;;;;;;;32.47;12.33;;;;;;;-5.53;100.00;101017.50;5056131;28;20044;-84
2022/12/13 04:37:12;;;;;;;32.17;11.23;;;;;;;-5.53;100.00;101017.50;5055457;28;20035;-84
2022/12/13 04:39:37;;;;;;;29.38;12.38;;;;;;;-5.50;100.00;101010.19;5038920;28;20279;-84
2022/12/13 04:42:03;;;;;;;29.07;12.47;;;;;;;-5.53;100.00;101009.56;5055778;28;20033;-84
2022/12/13 04:44:28;;;;;;;28.93;11.97;;;;;;;-5.55;100.00;101019.38;5039869;28;20123;-84
2022/12/13 04:46:54;;;;;;;29.38;11.70;;;;;;;-5.57;100.00;101002.78;5039259;28;20461;-84
2022/12/13 04:49:19;;;;;;;27.40;11.30;;;;;;;-5.60;100.00;101003.00;5039321;28;20031;-84
2022/12/13 04:51:45;;;;;;;29.97;11.30;;;;;;;-5.60;100.00;100998.56;5055797;28;20044;-84
2022/12/13 04:54:10;;;;;;;34.67;11.50;;;;;;;-5.61;100.00;101006.59;5039173;28;20052;-84
2022/12/13 04:56:37;;;;;;;30.47;11.77;;;;;;;-5.61;100.00;100999.50;5055522;28;20040;-84
2022/12/13 04:59:02;;;;;;;33.35;12.10;;;;;;;-5.58;100.00;100999.31;5055470;28;20035;-84
2022/12/13 05:01:27;;;;;;;30.23;11.68;;;;;;;-5.58;100.00;100999.31;5055373;28;20036;-84
2022/12/13 05:03:53;;;;;;;31.35;12.38;;;;;;;-5.58;100.00;101009.88;5055441;28;20028;-83
2022/12/13 05:06:18;;;;;;;35.03;12.70;;;;;;;-5.59;100.00;101004.72;5038790;28;20029;-84
2022/12/13 05:08:44;;;;;;;31.40;11.77;;;;;;;-5.61;100.00;101001.31;5055911;28;20032;-84
2022/12/13 05:11:12;;;;;;;29.13;12.10;;;;;;;-5.61;100.00;101001.31;5023012;28;20526;-84
2022/12/13 05:13:38;;;;;;;26.83;11.10;;;;;;;-5.63;100.00;101010.19;5073928;28;20044;-84
2022/12/13 05:16:06;;;;;;;29.67;11.98;;;;;;;-5.63;100.00;100999.59;5055117;28;20033;-84
2022/12/13 05:18:33;;;;;;;28.75;12.23;;;;;;;-5.59;100.00;101000.25;5073008;28;20064;-84
2022/12/13 05:21:11;;;;;;;34.13;11.83;;;;;;;-5.59;100.00;100999.41;5038748;28;20033;-83
2022/12/13 05:23:37;;;;;;;29.92;11.77;;;;;;;-5.65;100.00;100990.94;5073436;28;20266;-84
2022/12/13 05:26:03;;;;;;;35.63;13.02;;;;;;;-5.66;100.00;100996.34;5038806;28;20124;-84
2022/12/13 05:28:30;;;;;;;26.63;11.68;;;;;;;-5.69;100.00;100991.28;5055548;28;20535;-84
2022/12/13 05:30:58;;;;;;;32.67;11.77;;;;;;;-5.69;100.00;100993.91;5072960;28;20028;-84
2022/12/13 05:33:25;;;;;;;35.53;12.38;;;;;;;-5.70;100.00;100992.22;5055068;28;20116;-83
2022/12/13 05:35:51;;;;;;;31.45;12.88;;;;;;;-5.72;100.00;100979.09;5055538;28;20449;-84
2022/12/13 05:38:18;;;;;;;32.17;12.10;;;;;;;-5.72;100.00;100983.56;5055422;28;20035;-84
2022/12/13 05:40:44;;;;;;;33.30;12.60;;;;;;;-5.72;100.00;100987.03;5055045;28;20361;-84
2022/12/13 05:43:10;;;;;;;30.60;12.40;;;;;;;-5.71;100.00;100978.16;5055114;28;20279;-84
2022/12/13 05:45:36;;;;;;;29.27;12.20;;;;;;;-5.69;100.00;100981.53;5055709;28;20020;-84
2022/12/13 05:48:02;;;;;;;27.40;12.25;;;;;;;-5.67;100.00;100987.59;5055511;28;20094;-83
2022/12/13 05:50:27;;;;;;;35.97;11.87;;;;;;;-5.68;100.00;100970.00;5055465;28;20503;-84
2022/12/13 05:52:52;;;;;;;30.30;11.73;;;;;;;-5.68;100.00;100977.13;5025564;28;20080;-83
2022/12/13 05:55:18;;;;;;;33.37;12.23;;;;;;;-5.69;100.00;100976.25;5041847;28;20124;-83
2022/12/13 05:57:44;;;;;;;32.45;12.27;;;;;;;-5.69;100.00;100973.59;5058946;28;20041;-83
2022/12/13 06:00:10;;;;;;;37.70;13.33;;;;;;;-5.71;100.00;100969.41;5042713;28;20458;-84
2022/12/13 06:02:41;;;;;;;31.67;12.77;;;;;;;-5.72;100.00;100987.03;5059317;28;20036;-83
2022/12/13 06:05:08;;;;;;;29.33;11.95;;;;;;;-5.74;100.00;100983.66;5058796;28;20032;-84
2022/12/13 06:07:34;;;;;;;31.63;12.30;;;;;;;-5.72;100.00;100986.19;5058693;28;20531;-83
2022/12/13 06:09:59;;;;;;;32.05;12.25;;;;;;;-5.72;100.00;100984.38;5058681;28;20116;-83
2022/12/13 06:12:25;;;;;;;30.57;12.47;;;;;;;-5.73;100.00;100990.63;5076231;28;20468;-84
2022/12/13 06:14:50;;;;;;;37.47;12.30;;;;;;;-5.72;100.00;100988.84;5042279;28;20038;-84
2022/12/13 06:17:16;;;;;;;32.33;12.50;;;;;;;-5.72;100.00;100989.69;5041616;28;20522;-84
2022/12/13 06:19:41;;;;;;;29.88;12.02;;;;;;;-5.71;100.00;100991.38;5058070;28;20029;-84
2022/12/13 06:22:07;;;;;;;30.90;12.43;;;;;;;-5.75;100.00;100981.97;5025150;28;20029;-84
2022/12/13 06:24:32;;;;;;;32.30;12.33;;;;;;;-5.75;100.00;100984.59;5041420;28;20041;-84
2022/12/13 06:26:59;;;;;;;35.13;12.95;;;;;;;-5.75;100.00;100978.50;5041194;28;20082;-84
2022/12/13 06:29:25;;;;;;;35.10;12.73;;;;;;;-5.77;100.00;100980.38;5057740;28;20477;-84
2022/12/13 06:32:01;;;;;;;31.85;12.38;;;;;;;-5.77;100.00;100986.53;5057915;28;20533;-84
2022/12/13 06:34:27;;;;;;;39.63;13.32;;;;;;;-5.76;100.00;100982.91;5058543;28;20020;-84
2022/12/13 06:36:52;;;;;;;34.92;13.57;;;;;;;-5.74;100.00;100982.81;5041323;28;20478;-84
2022/12/13 06:39:18;;;;;;;34.20;12.73;;;;;;;-5.76;100.00;100988.19;5041157;28;20037;-84
2022/12/13 06:41:43;;;;;;;34.03;12.90;;;;;;;-5.76;100.00;100985.56;5057294;28;20029;-84
2022/12/13 06:44:09;;;;;;;35.67;12.93;;;;;;;-5.76;100.00;100990.00;5042143;28;20036;-84
2022/12/13 06:46:34;;;;;;;30.17;12.20;;;;;;;-5.78;100.00;100994.56;5040842;28;20449;-83
2022/12/13 06:49:00;;;;;;;35.20;14.03;;;;;;;-5.76;100.00;100993.47;5057389;28;20113;-83
2022/12/13 06:51:28;;;;;;;31.55;12.88;;;;;;;-5.76;100.00;100990.84;5057042;28;20056;-83
2022/12/13 06:53:53;;;;;;;31.70;12.83;;;;;;;-5.76;100.00;100990.84;5075723;28;20103;-83
2022/12/13 06:56:18;;;;;;;31.98;12.57;;;;;;;-5.78;100.00;100976.06;5057464;28;20047;-82
2022/12/13 06:58:44;;;;;;;35.00;12.87;;;;;;;-5.78;100.00;100976.06;5058206;28;20044;-82
2022/12/13 07:01:15;;;;;;;32.77;13.17;;;;;;;-5.81;100.00;100987.69;5040900;28;20514;-82
2022/12/13 07:03:41;;;;;;;38.20;14.02;;;;;;;-5.81;100.00;100982.41;5057078;28;20036;-82
2022/12/13 07:06:15;;;;;;;34.28;13.35;;;;;;;-5.83;100.00;100982.50;5040988;28;20028;-82
2022/12/13 07:08:42;;;;;;;40.83;14.40;;;;;;;-5.83;100.00;100977.22;5074955;28;20037;-82
2022/12/13 07:11:12;;;;;;;38.90;13.65;;;;;;;-5.81;100.00;100985.88;5057046;28;20127;-82
2022/12/13 07:13:38;;;;;;;40.67;14.32;;;;;;;-5.82;100.00;100989.50;5057068;28;20044;-83
2022/12/13 07:16:03;;;;;;;35.17;13.83;;;;;;;-5.82;100.00;100978.91;5056446;28;20028;-82
2022/12/13 07:18:29;;;;;;;30.50;12.73;;;;;;;-5.85;100.00;100973.81;5039782;28;20078;-83
2022/12/13 07:20:56;;;;;;;39.00;13.70;;;;;;;-5.84;100.00;100975.53;5039962;28;20487;-82
2022/12/13 07:23:22;;;;;;;39.85;14.45;;;;;;;-5.85;100.00;100979.09;5023993;28;20029;-82
2022/12/13 07:25:54;;;;;;;32.73;13.83;;;;;;;-5.86;100.00;100977.44;5057302;28;20036;-83
2022/12/13 07:28:20;;;;;;;39.65;14.48;;;;;;;-5.84;100.00;100985.25;5039861;28;20031;-83
2022/12/13 07:30:46;;;;;;;34.30;14.40;;;;;;;-5.86;100.00;100985.34;5056422;28;20107;-83
2022/12/13 07:33:12;;;;;;;38.08;13.82;;;;;;;-5.86;100.00;100977.44;5055847;28;20388;-83
2022/12/13 07:35:38;;;;;;;35.80;13.70;;;;;;;-5.84;100.00;100980.81;5056704;28;20032;-82
2022/12/13 07:38:07;;;;;;;38.20;13.60;;;;;;;-5.84;100.00;100986.09;5074076;28;20131;-83
2022/12/13 07:40:34;;;;;;;36.45;13.65;;;;;;;-5.82;100.00;100986.84;5074254;28;20097;-82
2022/12/13 07:43:00;;;;;;;36.08;14.77;;;;;;;-5.77;100.00;100986.53;5056234;28;20033;-82
2022/12/13 07:45:28;;;;;;;44.70;14.27;;;;;;;-5.73;100.00;100995.06;5039734;28;20078;-82
2022/12/13 07:47:53;;;;;;;39.28;15.18;;;;;;;-5.72;100.00;100978.28;5023032;28;20064;-83
2022/12/13 07:50:22;;;;;;;36.10;14.43;;;;;;;-5.67;100.00;100986.72;5056433;28;20120;-83
2022/12/13 07:52:49;;;;;;;39.42;14.90;;;;;;;-5.63;100.00;100985.56;5055818;28;20044;-83
2022/12/13 07:55:16;;;;;;;38.78;14.60;;;;;;;-5.58;100.00;100999.31;5039707;28;20068;-83
2022/12/13 07:57:42;;;;;;;35.60;14.57;;;;;;;-5.54;100.00;100998.13;5073768;28;20032;-82
2022/12/13 08:00:08;;;;;;;37.90;14.27;;;;;;;-5.50;100.00;101004.88;5055871;28;20283;-83
2022/12/13 08:02:34;;;;;;;44.63;16.55;;;;;;;-5.47;100.00;100996.75;5040200;28;20033;-82
2022/12/13 08:04:59;;;;;;;43.67;14.97;;;;;;;-5.42;100.00;100993.78;5056003;28;20070;-83
2022/12/13 08:07:25;;;;;;;39.93;14.93;;;;;;;-5.36;100.00;100990.72;5055994;28;20074;-82
2022/12/13 08:09:50;;;;;;;41.63;15.15;;;;;;;-5.30;100.00;100990.28;5056057;28;20778;-82
2022/12/13 08:12:16;;;;;;;40.03;14.80;;;;;;;-5.25;100.00;100989.94;5056349;28;20032;-82
2022/12/13 08:14:41;;;;;;;44.13;16.53;;;;;;;-5.21;100.00;100990.56;5038875;28;20043;-82
2022/12/13 08:17:07;;;;;;;44.67;16.17;;;;;;;-5.14;100.00;100994.47;5039029;28;20043;-82
2022/12/13 08:19:33;;;;;;;38.35;15.32;;;;;;;-5.09;100.00;100989.69;5039322;28;20754;-82
2022/12/13 08:21:58;;;;;;;37.30;14.55;;;;;;;-5.03;100.00;100996.34;5022790;28;20071;-82
2022/12/13 08:24:26;;;;;;;45.90;15.37;;;;;;;-4.97;100.00;100994.09;5055792;28;20037;-82
2022/12/13 08:26:51;;;;;;;42.88;16.02;;;;;;;-4.90;100.00;100999.81;5055856;28;20024;-82
2022/12/13 08:29:17;;;;;;;42.10;16.73;;;;;;;-4.83;100.00;101006.31;5055766;28;20128;-83
2022/12/13 08:31:42;;;;;;;43.93;17.57;;;;;;;-4.77;100.00;101008.53;5039011;28;20040;-88
2022/12/13 08:34:08;;;;;;;43.85;17.55;;;;;;;-4.72;100.00;101007.34;5022903;28;20465;-85
2022/12/13 08:36:33;;;;;;;39.67;16.30;;;;;;;-4.76;100.00;100988.19;5055311;28;20535;-85
2022/12/13 08:39:01;;;;;;;49.60;18.17;;;;;;;-4.62;100.00;101005.69;5056553;28;20508;-85
2022/12/13 08:41:27;;;;;;;43.58;16.02;;;;;;;-4.65;100.00;100990.91;5073794;28;20036;-85
2022/12/13 08:43:53;;;;;;;43.80;16.83;;;;;;;-4.52;100.00;100998.75;5055323;28;20496;-85
2022/12/13 08:46:18;;;;;;;41.73;16.57;;;;;;;-4.49;100.00;100993.25;5055163;28;20025;-86
2022/12/13 08:48:44;;;;;;;42.58;15.90;;;;;;;-4.40;100.00;100999.66;5056130;28;20037;-85
2022/12/13 08:51:14;;;;;;;45.13;17.60;;;;;;;-4.32;100.00;101005.25;5055552;28;20025;-85
2022/12/13 08:53:39;;;;;;;46.33;16.27;;;;;;;-4.33;100.00;100994.75;5056153;28;20025;-87
2022/12/13 08:56:09;;;;;;;40.70;16.33;;;;;;;-4.23;100.00;101015.13;5055346;28;20483;-85
2022/12/13 08:58:36;;;;;;;41.45;16.45;;;;;;;-4.19;100.00;101015.78;5073449;28;20036;-85
2022/12/13 09:01:08;;;;;;;43.80;16.15;;;;;;;-4.05;100.00;101027.97;5055211;28;20029;-87
2022/12/13 09:03:35;;;;;;;41.78;16.52;;;;;;;-3.96;100.00;101011.34;5055794;28;20134;-87
2022/12/13 09:06:12;;;;;;;46.17;17.47;;;;;;;-3.74;100.00;101023.81;5055390;28;20120;-87
2022/12/13 09:08:39;;;;;;;43.80;16.35;;;;;;;-3.70;100.00;101006.72;5055578;28;20440;-87
2022/12/13 09:11:05;;;;;;;41.78;16.15;;;;;;;-3.63;100.00;101009.75;5039078;28;20060;-87
2022/12/13 09:13:36;;;;;;;40.53;16.80;;;;;;;-3.57;100.00;101011.91;5055087;28;20082;-87
2022/12/13 09:16:13;;;;;;;40.83;15.98;;;;;;;-3.52;100.00;101006.25;5055603;28;20028;-87
2022/12/13 09:18:38;;;;;;;44.47;17.23;;;;;;;-3.44;100.00;101005.63;5055375;28;20035;-87
2022/12/13 09:21:09;;;;;;;42.33;15.50;;;;;;;-3.40;99.73;101005.28;5038868;28;20025;-87
2022/12/13 09:23:35;;;;;;;35.77;15.40;;;;;;;-3.27;99.56;101009.63;5055318;28;20085;-88
2022/12/13 09:26:01;;;;;;;38.75;16.17;;;;;;;-3.22;98.00;101012.75;5057214;28;20286;-88
2022/12/13 09:28:28;;;;;;;38.72;16.30;;;;;;;-3.21;98.11;101006.47;5059098;28;20035;-87
2022/12/13 09:30:54;;;;;;;41.22;16.48;;;;;;;-3.09;97.88;101007.31;5058744;28;20032;-87
2022/12/13 09:33:20;;;;;;;39.40;15.50;;;;;;;-3.01;97.52;101013.69;5042504;28;20028;-87
2022/12/13 09:35:46;;;;;;;39.45;15.75;;;;;;;-3.00;97.05;101004.78;5058779;28;20033;-87
2022/12/13 09:38:11;;;;;;;40.37;16.83;;;;;;;-2.94;96.60;101014.03;5059160;28;20036;-88
2022/12/13 09:40:38;;;;;;;40.78;16.02;;;;;;;-2.96;96.28;101002.72;5041518;28;20137;-88
2022/12/13 09:43:15;;;;;;;37.53;15.07;;;;;;;-2.82;96.17;101009.53;5058590;28;20048;-88
2022/12/13 09:45:44;;;;;;;39.63;16.60;;;;;;;-2.75;95.82;101000.13;5059450;28;20454;-87
2022/12/13 09:48:16;;;;;;;44.30;17.02;;;;;;;-2.75;95.44;100993.97;5077285;28;20029;-88
2022/12/13 09:50:42;;;;;;;39.30;15.57;;;;;;;-2.60;95.31;101011.28;5058931;28;20081;-87
2022/12/13 09:53:07;;;;;;;41.10;16.30;;;;;;;-2.53;95.02;101007.16;5076412;28;20119;-88
2022/12/13 09:55:51;;;;;;;42.17;16.00;;;;;;;-2.42;94.69;101000.13;5058523;28;20049;-87
2022/12/13 09:58:22;;;;;;;41.55;16.73;;;;;;;-2.44;94.64;100989.63;5058001;28;20510;-88
2022/12/13 10:00:50;;;;;;;42.35;16.20;;;;;;;-2.38;93.93;100991.78;5058787;28;20069;-85
2022/12/13 10:03:21;;;;;;;39.40;16.90;;;;;;;-2.31;93.37;100992.13;5076130;28;20024;-85
2022/12/13 10:05:59;;;;;;;42.80;16.67;;;;;;;-2.14;92.94;101007.50;5059102;28;20435;-85
2022/12/13 10:08:36;;;;;;;42.60;17.23;;;;;;;-2.09;92.21;100990.31;5058850;28;20037;-85
2022/12/13 10:11:02;;;;;;;39.60;16.95;;;;;;;-1.98;92.27;100995.56;5059351;28;20024;-85
2022/12/13 10:14:14;;;;;;;48.80;19.05;;;;;;;-1.78;91.85;100993.88;5058475;28;20024;-85
2022/12/13 10:16:47;;;;;;;45.97;17.63;;;;;;;-1.64;91.62;100968.72;5030939;28;20046;-85
2022/12/13 10:19:17;;;;;;;43.87;17.47;;;;;;;-1.45;90.54;100973.28;5076267;28;20032;-86
2022/12/13 10:21:44;;;;;;;43.85;17.55;;;;;;;-1.29;90.29;100968.31;5058391;28;20031;-85
2022/12/13 10:24:29;;;;;;;41.88;17.85;;;;;;;-1.11;88.94;100987.16;5058291;28;20067;-85
2022/12/13 10:27:12;;;;;;;37.88;15.80;;;;;;;-0.96;88.79;100984.09;5057799;28;20033;-85
2022/12/13 10:30:11;;;;;;;38.50;16.75;;;;;;;-0.83;88.04;100970.53;5076007;28;20039;-88
2022/12/13 10:32:46;;;;;;;39.50;15.60;;;;;;;-0.80;87.15;100956.94;5076173;28;20028;-85
2022/12/13 10:35:23;;;;;;;37.25;15.70;;;;;;;-0.74;86.67;100957.22;5076178;28;20036;-86
2022/12/13 10:37:49;;;;;;;41.58;16.25;;;;;;;-0.69;86.79;100951.47;5075328;28;20021;-85
2022/12/13 10:40:31;;;;;;;36.27;15.47;;;;;;;-0.56;86.47;100953.84;5041677;28;20032;-85
2022/12/13 10:43:06;;;;;;;36.40;14.70;;;;;;;-0.57;85.43;100962.84;5057766;28;20082;-85
2022/12/13 10:45:41;;;;;;;39.45;15.27;;;;;;;-0.58;84.74;100959.31;5059073;28;20029;-85
2022/12/13 10:48:18;;;;;;;39.58;16.30;;;;;;;-0.57;85.19;100952.19;5057682;28;20028;-85
2022/12/13 10:50:55;;;;;;;37.27;14.87;;;;;;;-0.51;85.13;100951.63;5057913;28;20027;-85
2022/12/13 10:53:32;;;;;;;37.63;15.20;;;;;;;-0.47;84.76;100938.84;5076661;28;20703;-85
2022/12/13 10:56:01;;;;;;;35.88;15.23;;;;;;;-0.29;83.76;100926.47;5057609;28;20093;-85
2022/12/13 10:58:42;;;;;;;40.05;15.07;;;;;;;-0.08;84.38;100928.13;5057466;28;20125;-85
2022/12/13 11:01:20;;;;;;;36.72;14.55;;;;;;;0.19;83.26;100922.00;5057212;28;20123;-85
2022/12/13 11:04:03;;;;;;;36.63;14.77;;;;;;;0.47;82.24;100922.03;5057093;28;20036;-85
2022/12/13 11:06:43;;;;;;;36.42;15.48;;;;;;;0.79;81.94;100916.25;5075934;28;20279;-86
2022/12/13 11:09:33;;;;;;;36.92;14.85;;;;;;;0.98;79.90;100911.78;5057250;28;20361;-85
2022/12/13 11:12:10;;;;;;;35.25;13.93;;;;;;;1.08;78.20;100903.69;5042839;28;20040;-86
2022/12/13 11:14:48;;;;;;;35.67;14.40;;;;;;;1.31;78.49;100904.91;5057949;28;20075;-86
2022/12/13 11:17:19;;;;;;;33.47;14.35;;;;;;;1.57;77.85;100896.13;5074809;28;20032;-86
2022/12/13 11:19:51;;;;;;;30.63;13.85;;;;;;;1.72;75.80;100883.84;5057451;28;20024;-85